Terminal Aerodrome Forecast
Issued by NWS

Home | Current Version | Previous Version | Text Only | Print | Product List | Glossary On
Versions: 1 2 3 4 5 6 7 8 9 10 11 12
000
FTAK31 PAJN 252300
TAFASI
TAF
PASI 252339Z 2600/2624 VRB06KT P6SM BKN070
     FM260800 12013KT P6SM VCSH SCT040 OVC080 WS020/12040KT
     FM261400 12013KT P6SM -RA SCT030 BKN040 OVC060
     FM262000 16013KT 5SM -RA BR SCT020 BKN030 OVC060=

USA.gov is the U.S. government's official web portal to all federal, state and local government web resources and services.